createdAt,value
2018-12-16T00:00:45.721Z,28.87
2018-12-16T00:03:14.367Z,29.77
2018-12-16T00:05:43.529Z,29.53
2018-12-16T00:08:12.266Z,26.73
2018-12-16T00:10:40.985Z,27.37
2018-12-16T00:13:10.018Z,27.43
2018-12-16T00:15:38.981Z,27.20
2018-12-16T00:18:07.857Z,27.23
2018-12-16T00:20:36.577Z,29.00
2018-12-16T00:23:11.526Z,30.07
2018-12-16T00:25:40.878Z,27.47
2018-12-16T00:28:09.578Z,25.37
2018-12-16T00:30:40.991Z,26.67
2018-12-16T00:33:09.717Z,25.17
2018-12-16T00:35:38.500Z,26.67
2018-12-16T00:38:07.212Z,26.10
2018-12-16T00:40:36.008Z,26.37
2018-12-16T00:43:05.634Z,24.77
2018-12-16T00:45:34.557Z,24.83
2018-12-16T00:48:05.612Z,28.73
2018-12-16T00:50:35.838Z,28.57
2018-12-16T00:53:05.743Z,23.60
2018-12-16T00:55:34.384Z,24.53
2018-12-16T00:58:04.997Z,26.77
2018-12-16T01:00:34.282Z,26.87
2018-12-16T01:03:04.946Z,27.80
2018-12-16T01:05:33.745Z,27.23
2018-12-16T01:08:05.307Z,25.13
2018-12-16T01:10:33.956Z,26.30
2018-12-16T01:13:03.390Z,29.93
2018-12-16T01:15:32.119Z,25.87
2018-12-16T01:18:00.994Z,26.73
2018-12-16T01:20:29.775Z,25.47
2018-12-16T01:22:58.663Z,27.27
2018-12-16T01:25:28.646Z,26.63
2018-12-16T01:27:57.356Z,30.23
2018-12-16T01:30:26.116Z,28.43
2018-12-16T01:32:54.851Z,25.63
2018-12-16T01:35:25.412Z,27.60
2018-12-16T01:37:54.040Z,27.40
2018-12-16T01:40:22.681Z,27.17
2018-12-16T01:42:51.388Z,29.87
2018-12-16T01:45:20.196Z,27.70
2018-12-16T01:47:49.007Z,29.07
2018-12-16T01:50:17.763Z,27.80
2018-12-16T01:52:50.236Z,28.90
2018-12-16T01:55:17.259Z,27.03
2018-12-16T01:57:46.067Z,25.93
2018-12-16T02:00:15.106Z,27.80
2018-12-16T02:02:43.879Z,28.80
2018-12-16T02:05:12.721Z,31.17
2018-12-16T02:07:41.474Z,29.20
2018-12-16T02:10:10.686Z,26.83
2018-12-16T02:12:39.520Z,27.10
2018-12-16T02:15:08.699Z,27.90
2018-12-16T02:17:37.533Z,28.53
2018-12-16T02:22:46.175Z,29.97
2018-12-16T02:25:14.894Z,29.33
2018-12-16T02:27:45.106Z,26.63
2018-12-16T02:30:19.162Z,25.87
2018-12-16T02:35:58.713Z,26.67
2018-12-16T02:38:27.299Z,29.43
2018-12-16T02:40:55.830Z,29.27
2018-12-16T02:43:24.754Z,30.57
2018-12-16T02:45:53.661Z,27.73
2018-12-16T02:48:22.225Z,28.50
2018-12-16T02:50:51.873Z,26.10
2018-12-16T02:53:20.488Z,26.83
2018-12-16T02:55:49.103Z,27.67
2018-12-16T02:58:17.816Z,27.53
2018-12-16T03:00:46.672Z,26.33
2018-12-16T03:03:15.310Z,26.93
2018-12-16T03:05:43.959Z,29.30
2018-12-16T03:08:12.574Z,25.47
2018-12-16T03:10:41.082Z,28.17
2018-12-16T03:13:10.191Z,26.40
2018-12-16T03:15:38.724Z,25.80
2018-12-16T03:18:07.368Z,25.70
2018-12-16T03:20:36.262Z,24.77
2018-12-16T03:23:12.171Z,26.07
2018-12-16T03:25:36.919Z,27.80
2018-12-16T03:28:05.766Z,28.37
2018-12-16T03:30:34.502Z,27.27
2018-12-16T03:33:05.452Z,28.07
2018-12-16T03:35:34.441Z,26.70
2018-12-16T03:38:05.761Z,28.67
2018-12-16T03:40:34.578Z,28.47
2018-12-16T03:43:04.846Z,26.53
2018-12-16T03:45:33.404Z,30.53
2018-12-16T03:48:03.593Z,28.13
2018-12-16T03:50:32.123Z,27.03
2018-12-16T03:53:02.820Z,28.63
2018-12-16T03:55:31.392Z,28.53
2018-12-16T03:57:59.945Z,28.80
2018-12-16T04:00:28.739Z,26.03
2018-12-16T04:02:57.443Z,24.90
2018-12-16T04:05:26.040Z,27.30
2018-12-16T04:07:54.571Z,28.30
2018-12-16T04:10:23.550Z,29.40
2018-12-16T04:12:52.078Z,28.30
2018-12-16T04:15:20.765Z,27.27
2018-12-16T04:17:49.270Z,26.27
2018-12-16T04:20:17.947Z,30.67
2018-12-16T04:22:46.472Z,28.17
2018-12-16T04:25:15.066Z,30.20
2018-12-16T04:27:45.213Z,31.13
2018-12-16T04:30:14.078Z,30.90
2018-12-16T04:32:43.205Z,32.20
2018-12-16T04:35:11.850Z,27.70
2018-12-16T04:37:40.396Z,30.47
2018-12-16T04:40:09.351Z,28.93
2018-12-16T04:42:37.887Z,29.17
2018-12-16T04:45:06.779Z,28.40
2018-12-16T04:47:35.253Z,33.50
2018-12-16T04:50:06.464Z,30.27
2018-12-16T04:52:34.987Z,30.13
2018-12-16T04:55:06.211Z,31.10
2018-12-16T04:57:42.203Z,33.60
2018-12-16T05:00:11.410Z,30.57
2018-12-16T05:02:40.081Z,32.97
2018-12-16T05:05:09.097Z,37.20
2018-12-16T05:07:37.866Z,33.23
2018-12-16T05:10:17.518Z,33.00
2018-12-16T05:12:46.040Z,30.67
2018-12-16T05:15:14.584Z,32.60
2018-12-16T05:17:43.162Z,37.20
2018-12-16T05:20:12.065Z,36.07
2018-12-16T05:22:40.754Z,33.23
2018-12-16T05:25:09.394Z,37.57
2018-12-16T05:27:38.172Z,38.13
2018-12-16T05:30:07.213Z,33.00
2018-12-16T05:32:35.902Z,34.10
2018-12-16T05:35:08.395Z,38.73
2018-12-16T05:37:37.026Z,36.93
2018-12-16T05:40:07.685Z,36.33
2018-12-16T05:42:36.190Z,37.63
2018-12-16T05:45:05.795Z,34.27
2018-12-16T05:47:36.293Z,38.13
2018-12-16T05:50:08.370Z,39.03
2018-12-16T05:52:36.957Z,42.87
2018-12-16T05:55:06.482Z,37.13
2018-12-16T05:57:35.057Z,39.00
2018-12-16T06:00:05.939Z,41.87
2018-12-16T06:02:34.888Z,42.60
2018-12-16T06:05:06.285Z,40.17
2018-12-16T06:07:34.762Z,42.03
2018-12-16T06:10:07.031Z,43.23
2018-12-16T06:12:35.578Z,46.00
2018-12-16T06:15:05.594Z,41.63
2018-12-16T06:17:34.297Z,42.07
2018-12-16T06:20:05.788Z,45.27
2018-12-16T06:22:34.318Z,39.87
2018-12-16T06:25:05.571Z,40.60
2018-12-16T06:27:34.110Z,47.40
2018-12-16T06:30:04.332Z,42.30
2018-12-16T06:32:32.829Z,39.10
2018-12-16T06:35:03.235Z,45.37
2018-12-16T06:37:31.727Z,45.80
2018-12-16T06:40:00.230Z,44.20
2018-12-16T06:42:28.973Z,46.50
2018-12-16T06:44:57.490Z,49.60
2018-12-16T06:47:26.078Z,44.37
2018-12-16T06:49:54.981Z,40.13
2018-12-16T06:52:23.825Z,45.03
2018-12-16T06:54:52.337Z,44.17
2018-12-16T06:57:20.902Z,42.67
2018-12-16T06:59:49.504Z,43.67
2018-12-16T07:02:18.066Z,42.40
2018-12-16T07:04:46.641Z,42.93
2018-12-16T07:07:15.486Z,44.43
2018-12-16T07:09:44.837Z,45.83
2018-12-16T07:12:13.392Z,41.93
2018-12-16T07:14:41.998Z,39.73
2018-12-16T07:17:10.607Z,38.97
2018-12-16T07:19:39.202Z,49.10
2018-12-16T07:22:08.149Z,45.80
2018-12-16T07:24:36.641Z,43.40
2018-12-16T07:27:06.146Z,41.63
2018-12-16T07:29:34.669Z,44.27
2018-12-16T07:32:05.333Z,46.57
2018-12-16T07:34:33.827Z,44.23
2018-12-16T07:37:04.544Z,43.57
2018-12-16T07:39:33.085Z,47.97
2018-12-16T07:42:03.164Z,45.23
2018-12-16T07:44:31.716Z,47.07
2018-12-16T07:47:00.285Z,47.30
2018-12-16T07:49:28.994Z,43.47
2018-12-16T07:51:57.538Z,46.50
2018-12-16T07:54:34.529Z,43.93
2018-12-16T07:57:04.857Z,48.40
2018-12-16T07:59:33.450Z,49.00
2018-12-16T08:02:04.073Z,47.67
2018-12-16T08:04:32.779Z,50.40
2018-12-16T08:07:02.692Z,49.77
2018-12-16T08:09:31.219Z,44.73
2018-12-16T08:11:59.765Z,46.53
2018-12-16T08:14:28.744Z,48.50
2018-12-16T08:16:57.299Z,48.83
2018-12-16T08:19:25.818Z,44.23
2018-12-16T08:21:54.325Z,47.53
2018-12-16T08:24:23.526Z,46.33
2018-12-16T08:26:52.107Z,48.47
2018-12-16T08:29:20.618Z,47.83
2018-12-16T08:31:49.156Z,43.70
2018-12-16T08:34:17.765Z,50.63
2018-12-16T08:36:46.310Z,47.20
2018-12-16T08:39:14.814Z,51.23
2018-12-16T08:41:43.874Z,47.77
2018-12-16T08:44:12.353Z,48.17
2018-12-16T08:46:41.254Z,46.07
2018-12-16T08:49:09.790Z,46.17
2018-12-16T08:51:38.405Z,49.07
2018-12-16T08:54:07.084Z,52.13
2018-12-16T08:56:35.636Z,45.47
2018-12-16T08:59:06.379Z,48.70
2018-12-16T09:01:34.889Z,48.43
2018-12-16T09:04:06.029Z,44.80
2018-12-16T09:06:35.948Z,48.27
2018-12-16T09:09:08.035Z,47.23
2018-12-16T09:11:36.538Z,49.03
2018-12-16T09:14:05.870Z,50.90
2018-12-16T09:16:34.475Z,51.93
2018-12-16T09:19:04.889Z,50.83
2018-12-16T09:21:33.532Z,48.60
2018-12-16T09:24:04.259Z,49.10
2018-12-16T09:26:32.964Z,49.30
2018-12-16T09:29:02.775Z,49.30
2018-12-16T09:31:31.318Z,49.70
2018-12-16T09:33:59.900Z,49.53
2018-12-16T09:36:28.491Z,51.60
2018-12-16T09:38:57.690Z,52.90
2018-12-16T09:41:26.466Z,50.17
2018-12-16T09:43:55.001Z,52.47
2018-12-16T09:46:23.782Z,58.00
2018-12-16T09:48:52.316Z,54.10
2018-12-16T09:51:20.839Z,48.13
2018-12-16T09:53:49.399Z,55.57
2018-12-16T09:56:18.491Z,52.77
2018-12-16T09:58:47.204Z,48.57
2018-12-16T10:01:15.819Z,54.53
2018-12-16T10:03:44.377Z,54.30
2018-12-16T10:06:12.939Z,57.10
2018-12-16T10:08:41.566Z,48.10
2018-12-16T10:11:10.324Z,50.23
2018-12-16T10:13:38.847Z,47.93
2018-12-16T10:16:07.403Z,52.00
2018-12-16T10:18:35.924Z,50.73
2018-12-16T10:21:05.673Z,46.77
2018-12-16T10:23:34.205Z,53.73
2018-12-16T10:26:04.178Z,51.93
2018-12-16T10:28:32.727Z,51.10
2018-12-16T10:31:02.414Z,51.40
2018-12-16T10:33:30.926Z,48.13
2018-12-16T10:35:59.465Z,44.37
2018-12-16T10:38:27.976Z,50.37
2018-12-16T10:40:56.747Z,50.30
2018-12-16T10:43:25.286Z,47.20
2018-12-16T10:45:53.884Z,44.00
2018-12-16T10:48:22.564Z,43.53
2018-12-16T10:50:51.416Z,43.27
2018-12-16T10:53:20.364Z,48.57
2018-12-16T10:55:48.971Z,47.07
2018-12-16T10:58:17.663Z,46.50
2018-12-16T11:00:51.442Z,50.93
2018-12-16T11:03:20.036Z,45.37
2018-12-16T11:05:48.574Z,45.40
2018-12-16T11:08:17.233Z,49.03
2018-12-16T11:10:45.835Z,43.07
2018-12-16T11:13:14.443Z,43.63
2018-12-16T11:15:42.934Z,47.47
2018-12-16T11:18:11.443Z,45.00
2018-12-16T11:20:41.049Z,47.60
2018-12-16T11:23:09.713Z,46.87
2018-12-16T11:25:43.425Z,42.37
2018-12-16T11:28:11.916Z,41.07
2018-12-16T11:30:40.438Z,44.17
2018-12-16T11:33:09.015Z,45.97
2018-12-16T11:35:37.708Z,46.90
2018-12-16T11:38:06.226Z,47.73
2018-12-16T11:40:34.778Z,45.00
2018-12-16T11:43:06.096Z,50.37
2018-12-16T11:45:34.599Z,43.93
2018-12-16T11:48:04.818Z,42.60
2018-12-16T11:50:33.364Z,47.03
2018-12-16T11:53:04.441Z,44.57
2018-12-16T11:55:33.438Z,51.80
2018-12-16T11:58:05.269Z,47.30
2018-12-16T12:00:34.212Z,47.40
2018-12-16T12:03:05.019Z,43.77
2018-12-16T12:05:34.408Z,48.77
2018-12-16T12:08:06.412Z,49.37
2018-12-16T12:10:35.067Z,47.13
2018-12-16T12:13:05.711Z,48.80
2018-12-16T12:15:34.283Z,51.53
2018-12-16T12:18:04.803Z,50.87
2018-12-16T12:20:33.347Z,52.30
2018-12-16T12:23:03.541Z,52.70
2018-12-16T12:25:32.101Z,53.10
2018-12-16T12:28:00.718Z,50.57
2018-12-16T12:30:29.267Z,51.37
2018-12-16T12:32:57.886Z,51.63
2018-12-16T12:35:26.406Z,49.00
2018-12-16T12:37:55.267Z,51.13
2018-12-16T12:40:23.874Z,53.63
2018-12-16T12:42:52.578Z,51.20
2018-12-16T12:45:21.134Z,48.50
2018-12-16T12:47:49.725Z,50.17
2018-12-16T12:50:18.471Z,53.57
2018-12-16T12:52:46.998Z,52.37
2018-12-16T12:55:15.529Z,53.97
2018-12-16T12:57:44.199Z,56.87
2018-12-16T13:00:15.306Z,51.80
2018-12-16T13:02:43.869Z,54.47
2018-12-16T13:05:13.238Z,52.67
2018-12-16T13:07:41.808Z,59.97
2018-12-16T13:10:12.218Z,60.87
2018-12-16T13:12:41.021Z,56.53
2018-12-16T13:15:09.665Z,51.73
2018-12-16T13:17:38.198Z,55.33
2018-12-16T13:20:07.369Z,55.20
2018-12-16T13:22:36.092Z,56.63
2018-12-16T13:25:17.160Z,56.03
2018-12-16T13:27:45.766Z,60.87
2018-12-16T13:30:14.400Z,58.73
2018-12-16T13:32:43.303Z,60.33
2018-12-16T13:35:11.798Z,58.27
2018-12-16T13:37:40.428Z,61.80
2018-12-16T13:40:09.539Z,65.90
2018-12-16T13:42:38.073Z,60.10
2018-12-16T13:45:08.007Z,62.03
2018-12-16T13:47:37.011Z,66.43
2018-12-16T13:50:08.308Z,72.80
2018-12-16T13:52:36.904Z,61.73
2018-12-16T13:55:06.687Z,71.63
2018-12-16T13:57:36.226Z,74.97
2018-12-16T14:00:07.890Z,71.40
2018-12-16T14:02:36.382Z,69.97
2018-12-16T14:05:06.644Z,72.17
2018-12-16T14:07:35.592Z,63.53
2018-12-16T14:10:06.928Z,74.83
2018-12-16T14:12:35.504Z,75.53
2018-12-16T14:15:06.366Z,84.10
2018-12-16T14:17:35.089Z,75.83
2018-12-16T14:20:08.017Z,77.50
2018-12-16T14:22:36.570Z,74.90
2018-12-16T14:25:06.343Z,91.60
2018-12-16T14:27:34.892Z,84.53
2018-12-16T14:30:07.357Z,99.13
2018-12-16T14:32:35.854Z,97.20
2018-12-16T14:35:06.014Z,111.60
2018-12-16T14:37:34.621Z,110.10
2018-12-16T14:40:06.096Z,103.83
2018-12-16T14:42:34.703Z,99.00
2018-12-16T14:45:05.217Z,102.07
2018-12-16T14:47:34.072Z,114.23
2018-12-16T14:50:06.080Z,102.57
2018-12-16T14:52:34.949Z,113.47
2018-12-16T14:55:09.189Z,106.53
2018-12-16T14:57:38.123Z,116.77
2018-12-16T15:00:10.412Z,111.90
2018-12-16T15:02:39.364Z,124.47
2018-12-16T15:05:09.304Z,112.30
2018-12-16T15:07:38.050Z,115.27
2018-12-16T15:10:09.719Z,105.63
2018-12-16T15:12:38.431Z,110.90
2018-12-16T15:15:08.131Z,96.50
2018-12-16T15:17:42.641Z,102.20
2018-12-16T15:20:08.441Z,105.40
2018-12-16T15:22:36.989Z,106.07
2018-12-16T15:25:06.150Z,103.13
2018-12-16T15:27:34.707Z,113.73
2018-12-16T15:30:05.657Z,102.53
2018-12-16T15:32:34.642Z,108.23
2018-12-16T15:35:04.631Z,104.27
2018-12-16T15:37:33.165Z,103.33
2018-12-16T15:40:06.295Z,92.73
2018-12-16T15:42:35.347Z,111.70
2018-12-16T15:45:09.436Z,96.77
2018-12-16T15:47:37.971Z,101.37
2018-12-16T15:50:07.888Z,96.93
2018-12-16T15:52:36.447Z,118.37
2018-12-16T15:55:07.671Z,99.87
2018-12-16T15:57:36.565Z,107.70
2018-12-16T16:00:06.183Z,100.73
2018-12-16T16:02:34.710Z,113.87
2018-12-16T16:05:04.759Z,100.30
2018-12-16T16:07:33.786Z,114.07
2018-12-16T16:10:03.979Z,116.53
2018-12-16T16:12:32.971Z,105.17
2018-12-16T16:15:02.786Z,109.00
2018-12-16T16:17:31.410Z,96.37
2018-12-16T16:20:00.060Z,103.47
2018-12-16T16:22:28.705Z,120.53
2018-12-16T16:24:57.954Z,120.00
2018-12-16T16:27:26.699Z,122.67
2018-12-16T16:29:55.242Z,116.37
2018-12-16T16:32:23.835Z,107.57
2018-12-16T16:34:53.190Z,103.47
2018-12-16T16:37:21.835Z,119.57
2018-12-16T16:39:50.405Z,107.87
2018-12-16T16:42:18.986Z,96.57
2018-12-16T16:44:48.173Z,112.43
2018-12-16T16:47:16.735Z,121.70
2018-12-16T16:49:45.444Z,121.13
2018-12-16T16:52:14.149Z,128.70
2018-12-16T16:54:43.870Z,131.50
2018-12-16T16:57:12.458Z,130.37
2018-12-16T16:59:41.639Z,135.47
2018-12-16T17:02:10.276Z,128.20
2018-12-16T17:04:39.037Z,118.77
2018-12-16T17:07:07.798Z,137.23
2018-12-16T17:09:36.823Z,122.23
2018-12-16T17:12:05.760Z,141.83
2018-12-16T17:14:34.351Z,142.60
2018-12-16T17:17:04.430Z,138.43
2018-12-16T17:19:33.383Z,139.03
2018-12-16T17:22:02.739Z,142.47
2018-12-16T17:24:31.364Z,127.67
2018-12-16T17:27:00.581Z,147.27
2018-12-16T17:29:29.641Z,127.20
2018-12-16T17:31:58.578Z,124.00
2018-12-16T17:34:27.104Z,129.83
2018-12-16T17:36:55.641Z,131.23
2018-12-16T17:39:25.194Z,124.40
2018-12-16T17:41:53.732Z,113.10
2018-12-16T17:44:22.413Z,135.87
2018-12-16T17:46:50.949Z,108.50
2018-12-16T17:49:19.526Z,105.27
2018-12-16T17:51:48.892Z,119.20
2018-12-16T17:54:17.586Z,94.93
2018-12-16T17:56:46.548Z,103.20
2018-12-16T17:59:18.011Z,108.47
2018-12-16T18:01:46.860Z,109.60
2018-12-16T18:04:16.244Z,97.73
2018-12-16T18:06:44.806Z,94.07
2018-12-16T18:09:13.471Z,109.53
2018-12-16T18:11:42.091Z,100.03
2018-12-16T18:14:10.747Z,94.07
2018-12-16T18:16:39.347Z,96.13
2018-12-16T18:19:07.975Z,97.30
2018-12-16T18:21:36.632Z,92.53
2018-12-16T18:24:05.882Z,112.97
2018-12-16T18:26:34.626Z,113.83
2018-12-16T18:29:04.695Z,122.83
2018-12-16T18:31:33.458Z,124.70
2018-12-16T18:34:03.093Z,131.87
2018-12-16T18:36:31.746Z,151.17
2018-12-16T18:39:00.463Z,139.83
2018-12-16T18:41:29.404Z,160.53
2018-12-16T18:43:58.536Z,140.63
2018-12-16T18:46:28.013Z,143.87
2018-12-16T18:48:57.188Z,137.77
2018-12-16T18:51:25.804Z,150.53
2018-12-16T18:53:54.463Z,127.40
2018-12-16T18:56:23.064Z,110.27
2018-12-16T18:58:51.832Z,127.23
2018-12-16T19:01:20.591Z,120.30
2018-12-16T19:03:50.112Z,111.37
2018-12-16T19:06:19.414Z,111.17
2018-12-16T19:08:49.576Z,110.90
2018-12-16T19:11:18.693Z,104.43
2018-12-16T19:13:47.917Z,131.13
2018-12-16T19:16:18.006Z,115.97
2018-12-16T19:18:46.935Z,140.70
2018-12-16T19:21:15.665Z,118.03
2018-12-16T19:23:44.331Z,105.37
2018-12-16T19:26:13.265Z,117.47
2018-12-16T19:28:42.294Z,122.90
2018-12-16T19:31:10.968Z,112.60
2018-12-16T19:33:39.936Z,111.80
2018-12-16T19:36:08.548Z,138.80
2018-12-16T19:38:37.139Z,114.37
2018-12-16T19:41:05.901Z,92.93
2018-12-16T19:43:34.681Z,93.87
2018-12-16T19:46:04.464Z,89.40
2018-12-16T19:48:33.545Z,94.13
2018-12-16T19:51:04.553Z,105.90
2018-12-16T19:53:33.274Z,90.60
2018-12-16T19:56:04.383Z,110.07
2018-12-16T19:58:34.461Z,85.30
2018-12-16T20:01:05.836Z,88.23
2018-12-16T20:03:37.516Z,98.03
2018-12-16T20:06:12.166Z,75.47
2018-12-16T20:08:40.869Z,81.17
2018-12-16T20:11:09.828Z,92.73
2018-12-16T20:13:38.909Z,87.67
2018-12-16T20:16:07.714Z,88.97
2018-12-16T20:18:37.098Z,79.40
2018-12-16T20:21:06.929Z,74.00
2018-12-16T20:23:35.622Z,77.87
2018-12-16T20:26:08.326Z,75.93
2018-12-16T20:28:37.387Z,83.77
2018-12-16T20:31:06.313Z,83.10
2018-12-16T20:33:35.133Z,83.67
2018-12-16T20:36:05.597Z,78.13
2018-12-16T20:38:34.264Z,83.27
2018-12-16T20:41:05.265Z,78.80
2018-12-16T20:43:34.800Z,81.97
2018-12-16T20:46:04.868Z,88.93
2018-12-16T20:48:34.908Z,114.13
2018-12-16T20:51:06.546Z,110.90
2018-12-16T20:53:35.384Z,112.70
2018-12-16T20:56:07.267Z,114.67
2018-12-16T20:58:36.016Z,108.60
2018-12-16T21:01:09.078Z,153.70
2018-12-16T21:03:38.077Z,142.77
2018-12-16T21:06:08.386Z,157.83
2018-12-16T21:08:37.357Z,131.50
2018-12-16T21:11:11.223Z,171.13
2018-12-16T21:13:45.178Z,162.77
2018-12-16T21:16:19.123Z,204.17
2018-12-16T21:18:47.930Z,176.10
2018-12-16T21:21:16.625Z,143.00
2018-12-16T21:23:45.816Z,132.87
2018-12-16T21:26:16.224Z,161.83
2018-12-16T21:28:45.018Z,198.60
2018-12-16T21:31:13.609Z,136.03
2018-12-16T21:33:42.299Z,152.70
2018-12-16T21:36:11.392Z,109.97
2018-12-16T21:38:40.045Z,122.37
2018-12-16T21:41:08.651Z,129.47
2018-12-16T21:43:37.224Z,113.23
2018-12-16T21:46:07.076Z,106.87
2018-12-16T21:48:42.500Z,107.80
2018-12-16T21:51:11.057Z,104.10
2018-12-16T21:53:39.780Z,109.23
2018-12-16T21:56:08.294Z,107.93
2018-12-16T21:58:36.894Z,105.73
2018-12-16T22:01:06.939Z,97.67
2018-12-16T22:03:36.412Z,89.03
2018-12-16T22:06:05.235Z,99.73
2018-12-16T22:08:34.257Z,101.87
2018-12-16T22:11:05.230Z,117.23
2018-12-16T22:13:33.748Z,104.93
2018-12-16T22:16:04.301Z,96.70
2018-12-16T22:18:32.844Z,104.57
2018-12-16T22:21:02.808Z,113.30
2018-12-16T22:23:31.353Z,126.87
2018-12-16T22:25:59.916Z,136.80
2018-12-16T22:28:28.524Z,110.60
2018-12-16T22:30:57.452Z,109.23
2018-12-16T22:33:25.938Z,94.50
2018-12-16T22:35:54.446Z,97.30
2018-12-16T22:38:23.035Z,89.20
2018-12-16T22:40:51.599Z,89.07
2018-12-16T22:43:20.279Z,101.63
2018-12-16T22:45:48.915Z,87.70
2018-12-16T22:48:17.414Z,97.50
2018-12-16T22:50:45.914Z,102.83
2018-12-16T22:53:14.880Z,83.40
2018-12-16T22:55:43.631Z,98.50
2018-12-16T22:58:12.915Z,89.20
2018-12-16T23:00:46.982Z,87.33
2018-12-16T23:03:15.476Z,79.77
2018-12-16T23:05:43.999Z,77.53
2018-12-16T23:08:12.475Z,95.73
2018-12-16T23:10:41.069Z,87.17
2018-12-16T23:13:09.672Z,86.60
2018-12-16T23:15:38.319Z,85.67
2018-12-16T23:18:07.476Z,78.90
2018-12-16T23:20:35.942Z,78.90
2018-12-16T23:23:05.615Z,87.73
2018-12-16T23:25:34.216Z,85.57
2018-12-16T23:28:04.431Z,90.23
2018-12-16T23:30:33.084Z,89.63
2018-12-16T23:33:03.173Z,89.97
2018-12-16T23:35:31.731Z,89.80
2018-12-16T23:38:00.250Z,78.33
2018-12-16T23:40:28.763Z,86.47
2018-12-16T23:42:57.392Z,88.17
2018-12-16T23:45:26.090Z,88.40
2018-12-16T23:47:54.725Z,84.37
2018-12-16T23:50:23.311Z,79.90
2018-12-16T23:52:51.865Z,94.13
2018-12-16T23:55:20.724Z,84.70
2018-12-16T23:57:49.243Z,85.30
